sensor_id;sensor_type;location;lat;lon;timestamp;pressure;altitude;pressure_sealevel;temperature;humidity
53647;BME280;39550;52.230;5.194;2023-03-15T00:00:46;101026.91;;;5.60;80.79
53647;BME280;39550;52.230;5.194;2023-03-15T00:03:11;101017.41;;;5.56;81.39
53647;BME280;39550;52.230;5.194;2023-03-15T00:05:41;101019.19;;;5.58;80.44
53647;BME280;39550;52.230;5.194;2023-03-15T00:08:07;101033.66;;;5.58;80.66
53647;BME280;39550;52.230;5.194;2023-03-15T00:10:33;101033.66;;;5.58;80.82
53647;BME280;39550;52.230;5.194;2023-03-15T00:12:58;101033.56;;;5.55;81.08
53647;BME280;39550;52.230;5.194;2023-03-15T00:15:23;101044.72;;;5.57;81.44
53647;BME280;39550;52.230;5.194;2023-03-15T00:17:49;101041.28;;;5.56;81.30
53647;BME280;39550;52.230;5.194;2023-03-15T00:20:14;101042.03;;;5.54;81.05
53647;BME280;39550;52.230;5.194;2023-03-15T00:22:41;101038.59;;;5.52;80.74
53647;BME280;39550;52.230;5.194;2023-03-15T00:25:07;101045.44;;;5.53;81.18
53647;BME280;39550;52.230;5.194;2023-03-15T00:27:32;101042.84;;;5.51;81.54
53647;BME280;39550;52.230;5.194;2023-03-15T00:29:57;101037.66;;;5.50;80.92
53647;BME280;39550;52.230;5.194;2023-03-15T00:32:23;101043.69;;;5.52;81.26
53647;BME280;39550;52.230;5.194;2023-03-15T00:34:48;101045.31;;;5.50;80.94
53647;BME280;39550;52.230;5.194;2023-03-15T00:37:16;101050.44;;;5.50;80.47
53647;BME280;39550;52.230;5.194;2023-03-15T00:39:44;101053.00;;;5.50;81.22
53647;BME280;39550;52.230;5.194;2023-03-15T00:42:11;101054.69;;;5.49;81.80
53647;BME280;39550;52.230;5.194;2023-03-15T00:44:41;101053.84;;;5.49;81.64
53647;BME280;39550;52.230;5.194;2023-03-15T00:47:08;101046.97;;;5.48;80.97
53647;BME280;39550;52.230;5.194;2023-03-15T00:49:33;101056.28;;;5.45;81.27
53647;BME280;39550;52.230;5.194;2023-03-15T00:51:58;101060.56;;;5.46;80.65
53647;BME280;39550;52.230;5.194;2023-03-15T00:54:24;101063.97;;;5.45;81.06
53647;BME280;39550;52.230;5.194;2023-03-15T00:56:49;101072.44;;;5.44;81.11
53647;BME280;39550;52.230;5.194;2023-03-15T00:59:14;101074.19;;;5.45;80.74
53647;BME280;39550;52.230;5.194;2023-03-15T01:01:40;101080.91;;;5.43;80.96
53647;BME280;39550;52.230;5.194;2023-03-15T01:04:11;101071.38;;;5.38;81.16
53647;BME280;39550;52.230;5.194;2023-03-15T01:06:37;101080.03;;;5.41;80.75
53647;BME280;39550;52.230;5.194;2023-03-15T01:09:03;101079.94;;;5.40;81.03
53647;BME280;39550;52.230;5.194;2023-03-15T01:11:28;101081.63;;;5.39;81.93
53647;BME280;39550;52.230;5.194;2023-03-15T01:13:56;101077.25;;;5.35;81.27
53647;BME280;39550;52.230;5.194;2023-03-15T01:16:22;101087.56;;;5.38;81.84
53647;BME280;39550;52.230;5.194;2023-03-15T01:18:48;101096.06;;;5.37;81.15
53647;BME280;39550;52.230;5.194;2023-03-15T01:21:16;101093.44;;;5.36;81.63
53647;BME280;39550;52.230;5.194;2023-03-15T01:23:41;101098.53;;;5.36;81.18
53647;BME280;39550;52.230;5.194;2023-03-15T01:26:10;101095.94;;;5.34;81.47
53647;BME280;39550;52.230;5.194;2023-03-15T01:28:36;101096.69;;;5.32;80.96
53647;BME280;39550;52.230;5.194;2023-03-15T01:31:02;101110.41;;;5.34;81.49
53647;BME280;39550;52.230;5.194;2023-03-15T01:33:27;101090.53;;;5.25;81.60
53647;BME280;39550;52.230;5.194;2023-03-15T01:36:03;101107.81;;;5.32;82.00
53647;BME280;39550;52.230;5.194;2023-03-15T01:38:30;101119.66;;;5.30;81.88
53647;BME280;39550;52.230;5.194;2023-03-15T01:40:56;101123.03;;;5.29;81.24
53647;BME280;39550;52.230;5.194;2023-03-15T01:43:23;101124.75;;;5.30;81.15
53647;BME280;39550;52.230;5.194;2023-03-15T01:48:38;101123.03;;;5.29;81.75
53647;BME280;39550;52.230;5.194;2023-03-15T01:53:41;101122.91;;;5.26;81.52
53647;BME280;39550;52.230;5.194;2023-03-15T01:56:08;101130.59;;;5.26;81.15
53647;BME280;39550;52.230;5.194;2023-03-15T01:58:34;101129.72;;;5.25;81.60
53647;BME280;39550;52.230;5.194;2023-03-15T02:01:01;101118.44;;;5.19;81.34
53647;BME280;39550;52.230;5.194;2023-03-15T02:03:34;101135.56;;;5.21;81.22
53647;BME280;39550;52.230;5.194;2023-03-15T02:06:04;101131.97;;;5.16;81.60
53647;BME280;39550;52.230;5.194;2023-03-15T02:08:34;101131.97;;;5.16;81.65
53647;BME280;39550;52.230;5.194;2023-03-15T02:11:03;101138.06;;;5.20;81.29
53647;BME280;39550;52.230;5.194;2023-03-15T02:13:30;101141.41;;;5.19;82.15
53647;BME280;39550;52.230;5.194;2023-03-15T02:15:57;101141.41;;;5.19;82.04
53647;BME280;39550;52.230;5.194;2023-03-15T02:18:23;101153.28;;;5.17;82.09
53647;BME280;39550;52.230;5.194;2023-03-15T02:23:36;101163.50;;;5.17;81.56
53647;BME280;39550;52.230;5.194;2023-03-15T02:28:37;101165.94;;;5.14;82.07
53647;BME280;39550;52.230;5.194;2023-03-15T02:31:03;101173.59;;;5.14;81.61
53647;BME280;39550;52.230;5.194;2023-03-15T02:33:35;101171.03;;;5.14;81.50
53647;BME280;39550;52.230;5.194;2023-03-15T02:36:16;101170.94;;;5.10;82.27
53647;BME280;39550;52.230;5.194;2023-03-15T02:38:42;101178.59;;;5.10;82.12
53647;BME280;39550;52.230;5.194;2023-03-15T02:41:08;101184.59;;;5.11;82.26
53647;BME280;39550;52.230;5.194;2023-03-15T02:43:34;101195.66;;;5.11;81.59
53647;BME280;39550;52.230;5.194;2023-03-15T02:46:01;101187.06;;;5.09;81.73
53647;BME280;39550;52.230;5.194;2023-03-15T02:48:28;101191.31;;;5.09;82.28
53647;BME280;39550;52.230;5.194;2023-03-15T02:50:56;101189.63;;;5.09;81.88
53647;BME280;39550;52.230;5.194;2023-03-15T02:53:21;101197.22;;;5.08;81.54
53647;BME280;39550;52.230;5.194;2023-03-15T02:55:46;101198.94;;;5.07;82.35
53647;BME280;39550;52.230;5.194;2023-03-15T02:58:12;101191.97;;;5.03;81.78
53647;BME280;39550;52.230;5.194;2023-03-15T03:00:37;101206.53;;;5.06;82.44
53647;BME280;39550;52.230;5.194;2023-03-15T03:03:03;101216.75;;;5.06;82.05
53647;BME280;39550;52.230;5.194;2023-03-15T03:05:29;101215.81;;;5.04;82.42
53647;BME280;39550;52.230;5.194;2023-03-15T03:07:55;101216.66;;;5.03;81.89
53647;BME280;39550;52.230;5.194;2023-03-15T03:10:21;101220.81;;;5.01;81.42
53647;BME280;39550;52.230;5.194;2023-03-15T03:12:46;101229.38;;;5.01;81.61
53647;BME280;39550;52.230;5.194;2023-03-15T03:15:12;101232.84;;;5.03;82.37
53647;BME280;39550;52.230;5.194;2023-03-15T03:17:37;101238.75;;;5.02;81.44
53647;BME280;39550;52.230;5.194;2023-03-15T03:20:05;101245.56;;;5.02;82.25
53647;BME280;39550;52.230;5.194;2023-03-15T03:22:33;101249.81;;;5.01;82.52
53647;BME280;39550;52.230;5.194;2023-03-15T03:24:58;101251.41;;;4.99;82.37
53647;BME280;39550;52.230;5.194;2023-03-15T03:27:23;101259.03;;;4.98;82.19
53647;BME280;39550;52.230;5.194;2023-03-15T03:29:49;101270.16;;;5.00;82.35
53647;BME280;39550;52.230;5.194;2023-03-15T03:32:14;101263.28;;;4.97;81.75
53647;BME280;39550;52.230;5.194;2023-03-15T03:34:39;101270.09;;;4.98;82.21
53647;BME280;39550;52.230;5.194;2023-03-15T03:37:05;101276.84;;;4.96;82.24
53647;BME280;39550;52.230;5.194;2023-03-15T03:39:30;101275.09;;;4.95;82.20
53647;BME280;39550;52.230;5.194;2023-03-15T03:41:56;101285.31;;;4.95;82.51
53647;BME280;39550;52.230;5.194;2023-03-15T03:44:21;101297.16;;;4.93;82.55
53647;BME280;39550;52.230;5.194;2023-03-15T03:46:46;101295.53;;;4.95;81.81
53647;BME280;39550;52.230;5.194;2023-03-15T03:49:12;101291.91;;;4.90;82.09
53647;BME280;39550;52.230;5.194;2023-03-15T03:51:38;101295.41;;;4.92;82.55
53647;BME280;39550;52.230;5.194;2023-03-15T03:54:05;101296.81;;;4.84;82.25
53647;BME280;39550;52.230;5.194;2023-03-15T03:56:30;101316.72;;;4.92;81.59
53647;BME280;39550;52.230;5.194;2023-03-15T03:58:56;101311.56;;;4.91;81.45
53647;BME280;39550;52.230;5.194;2023-03-15T04:01:21;101310.63;;;4.89;81.88
53647;BME280;39550;52.230;5.194;2023-03-15T04:03:47;101314.78;;;4.87;81.84
53647;BME280;39550;52.230;5.194;2023-03-15T04:06:13;101319.09;;;4.88;81.86
53647;BME280;39550;52.230;5.194;2023-03-15T04:08:38;101320.84;;;4.89;82.06
53647;BME280;39550;52.230;5.194;2023-03-15T04:11:05;101327.56;;;4.87;82.25
53647;BME280;39550;52.230;5.194;2023-03-15T04:13:31;101335.16;;;4.85;81.98
53647;BME280;39550;52.230;5.194;2023-03-15T04:15:57;101331.81;;;4.86;82.38
53647;BME280;39550;52.230;5.194;2023-03-15T04:18:23;101335.16;;;4.85;81.68
53647;BME280;39550;52.230;5.194;2023-03-15T04:20:48;101337.66;;;4.84;82.34
53647;BME280;39550;52.230;5.194;2023-03-15T04:23:18;101335.00;;;4.81;82.18
53647;BME280;39550;52.230;5.194;2023-03-15T04:25:47;101346.13;;;4.83;82.30
53647;BME280;39550;52.230;5.194;2023-03-15T04:28:13;101347.81;;;4.82;81.77
53647;BME280;39550;52.230;5.194;2023-03-15T04:30:39;101349.47;;;4.82;82.38
53647;BME280;39550;52.230;5.194;2023-03-15T04:33:08;101354.53;;;4.80;81.89
53647;BME280;39550;52.230;5.194;2023-03-15T04:35:35;101356.34;;;4.83;82.05
53647;BME280;39550;52.230;5.194;2023-03-15T04:38:01;101353.63;;;4.78;82.16
53647;BME280;39550;52.230;5.194;2023-03-15T04:40:29;101363.09;;;4.81;81.50
53647;BME280;39550;52.230;5.194;2023-03-15T04:43:00;101373.31;;;4.81;82.15
53647;BME280;39550;52.230;5.194;2023-03-15T04:45:25;101357.72;;;4.74;81.42
53647;BME280;39550;52.230;5.194;2023-03-15T04:47:54;101373.16;;;4.77;81.74
53647;BME280;39550;52.230;5.194;2023-03-15T04:50:20;101378.19;;;4.76;81.54
53647;BME280;39550;52.230;5.194;2023-03-15T04:52:46;101381.66;;;4.76;81.76
53647;BME280;39550;52.230;5.194;2023-03-15T04:55:12;101386.75;;;4.76;81.49
53647;BME280;39550;52.230;5.194;2023-03-15T04:57:38;101392.66;;;4.75;81.58
53647;BME280;39550;52.230;5.194;2023-03-15T05:00:04;101393.47;;;4.74;81.62
53647;BME280;39550;52.230;5.194;2023-03-15T05:02:34;101402.69;;;4.71;82.05
53647;BME280;39550;52.230;5.194;2023-03-15T05:05:00;101423.19;;;4.72;81.58
53647;BME280;39550;52.230;5.194;2023-03-15T05:07:25;101419.72;;;4.72;81.66
53647;BME280;39550;52.230;5.194;2023-03-15T05:09:51;101420.47;;;4.69;81.74
53647;BME280;39550;52.230;5.194;2023-03-15T05:12:17;101423.03;;;4.69;82.05
53647;BME280;39550;52.230;5.194;2023-03-15T05:14:43;101422.00;;;4.64;81.89
53647;BME280;39550;52.230;5.194;2023-03-15T05:17:08;101435.78;;;4.69;81.65
53647;BME280;39550;52.230;5.194;2023-03-15T05:19:33;101421.88;;;4.61;81.58
53647;BME280;39550;52.230;5.194;2023-03-15T05:22:00;101447.63;;;4.67;81.70
53647;BME280;39550;52.230;5.194;2023-03-15T05:24:26;101446.84;;;4.68;82.24
53647;BME280;39550;52.230;5.194;2023-03-15T05:26:52;101454.50;;;4.68;81.68
53647;BME280;39550;52.230;5.194;2023-03-15T05:29:19;101451.88;;;4.67;81.75
53647;BME280;39550;52.230;5.194;2023-03-15T05:31:45;101459.59;;;4.68;82.02
53647;BME280;39550;52.230;5.194;2023-03-15T05:34:11;101457.84;;;4.67;81.45
53647;BME280;39550;52.230;5.194;2023-03-15T05:36:36;101454.22;;;4.62;81.43
53647;BME280;39550;52.230;5.194;2023-03-15T05:39:01;101465.31;;;4.63;82.34
53647;BME280;39550;52.230;5.194;2023-03-15T05:41:30;101467.09;;;4.65;82.03
53647;BME280;39550;52.230;5.194;2023-03-15T05:43:56;101467.94;;;4.64;82.12
53647;BME280;39550;52.230;5.194;2023-03-15T05:46:21;101461.88;;;4.62;82.00
53647;BME280;39550;52.230;5.194;2023-03-15T05:48:47;101469.53;;;4.62;81.54
53647;BME280;39550;52.230;5.194;2023-03-15T05:51:13;101477.19;;;4.62;82.24
53647;BME280;39550;52.230;5.194;2023-03-15T05:53:39;101479.75;;;4.62;81.62
53647;BME280;39550;52.230;5.194;2023-03-15T05:56:04;101471.16;;;4.60;82.16
53647;BME280;39550;52.230;5.194;2023-03-15T05:58:30;101481.38;;;4.60;81.83
53647;BME280;39550;52.230;5.194;2023-03-15T06:00:55;101480.47;;;4.59;81.61
53647;BME280;39550;52.230;5.194;2023-03-15T06:03:20;101485.69;;;4.61;82.24
53647;BME280;39550;52.230;5.194;2023-03-15T06:05:46;101488.25;;;4.61;81.62
53647;BME280;39550;52.230;5.194;2023-03-15T06:08:11;101501.00;;;4.61;81.88
53647;BME280;39550;52.230;5.194;2023-03-15T06:10:36;101505.28;;;4.62;82.08
53647;BME280;39550;52.230;5.194;2023-03-15T06:13:02;101504.34;;;4.60;81.51
53647;BME280;39550;52.230;5.194;2023-03-15T06:15:27;101506.91;;;4.60;81.90
53647;BME280;39550;52.230;5.194;2023-03-15T06:17:52;101505.94;;;4.58;81.47
53647;BME280;39550;52.230;5.194;2023-03-15T06:20:18;101503.41;;;4.58;82.05
53647;BME280;39550;52.230;5.194;2023-03-15T06:22:43;101513.59;;;4.58;81.57
53647;BME280;39550;52.230;5.194;2023-03-15T06:25:09;101509.06;;;4.51;82.01
53647;BME280;39550;52.230;5.194;2023-03-15T06:27:35;101508.13;;;4.49;82.20
53647;BME280;39550;52.230;5.194;2023-03-15T06:30:00;101519.44;;;4.55;81.99
53647;BME280;39550;52.230;5.194;2023-03-15T06:32:26;101520.34;;;4.56;82.09
53647;BME280;39550;52.230;5.194;2023-03-15T06:34:51;101533.91;;;4.55;81.62
53647;BME280;39550;52.230;5.194;2023-03-15T06:37:16;101545.88;;;4.56;82.32
53647;BME280;39550;52.230;5.194;2023-03-15T06:39:42;101510.06;;;4.35;82.27
53647;BME280;39550;52.230;5.194;2023-03-15T06:42:09;101542.34;;;4.54;81.87
53647;BME280;39550;52.230;5.194;2023-03-15T06:44:37;101526.66;;;4.45;81.68
53647;BME280;39550;52.230;5.194;2023-03-15T06:47:02;101551.72;;;4.53;81.50
53647;BME280;39550;52.230;5.194;2023-03-15T06:49:28;101540.34;;;4.47;82.00
53647;BME280;39550;52.230;5.194;2023-03-15T06:51:55;101566.16;;;4.53;81.95
53647;BME280;39550;52.230;5.194;2023-03-15T06:54:20;101567.88;;;4.54;81.63
53647;BME280;39550;52.230;5.194;2023-03-15T06:56:45;101578.09;;;4.54;81.21
53647;BME280;39550;52.230;5.194;2023-03-15T06:59:11;101572.19;;;4.55;81.51
53647;BME280;39550;52.230;5.194;2023-03-15T07:01:36;101581.72;;;4.59;81.17
53647;BME280;39550;52.230;5.194;2023-03-15T07:04:01;101583.63;;;4.63;80.73
53647;BME280;39550;52.230;5.194;2023-03-15T07:06:27;101589.38;;;4.59;81.50
53647;BME280;39550;52.230;5.194;2023-03-15T07:08:53;101576.22;;;4.50;81.66
53647;BME280;39550;52.230;5.194;2023-03-15T07:11:19;101584.81;;;4.52;81.49
53647;BME280;39550;52.230;5.194;2023-03-15T07:13:45;101575.00;;;4.41;81.03
53647;BME280;39550;52.230;5.194;2023-03-15T07:16:10;101601.72;;;4.50;80.83
53647;BME280;39550;52.230;5.194;2023-03-15T07:18:35;101591.53;;;4.50;80.92
53647;BME280;39550;52.230;5.194;2023-03-15T07:21:02;101591.59;;;4.51;80.63
53647;BME280;39550;52.230;5.194;2023-03-15T07:23:29;101601.78;;;4.51;80.82
53647;BME280;39550;52.230;5.194;2023-03-15T07:25:55;101613.75;;;4.52;80.49
53647;BME280;39550;52.230;5.194;2023-03-15T07:28:21;101599.84;;;4.46;80.43
53647;BME280;39550;52.230;5.194;2023-03-15T07:30:58;101615.44;;;4.52;81.34
53647;BME280;39550;52.230;5.194;2023-03-15T07:33:25;101611.22;;;4.52;81.14
53647;BME280;39550;52.230;5.194;2023-03-15T07:35:51;101609.44;;;4.51;80.42
53647;BME280;39550;52.230;5.194;2023-03-15T07:38:25;101613.69;;;4.51;80.71
53647;BME280;39550;52.230;5.194;2023-03-15T07:40:51;101605.78;;;4.45;81.27
53647;BME280;39550;52.230;5.194;2023-03-15T07:43:17;101632.53;;;4.53;80.79
53647;BME280;39550;52.230;5.194;2023-03-15T07:45:42;101632.53;;;4.53;81.01
53647;BME280;39550;52.230;5.194;2023-03-15T07:48:08;101635.88;;;4.52;81.34
53647;BME280;39550;52.230;5.194;2023-03-15T07:50:33;101641.78;;;4.51;81.26
53647;BME280;39550;52.230;5.194;2023-03-15T07:52:59;101639.22;;;4.51;81.18
53647;BME280;39550;52.230;5.194;2023-03-15T07:55:24;101647.75;;;4.51;81.25
53647;BME280;39550;52.230;5.194;2023-03-15T07:57:50;101649.44;;;4.51;80.62
53647;BME280;39550;52.230;5.194;2023-03-15T08:00:16;101650.88;;;4.46;80.93
53647;BME280;39550;52.230;5.194;2023-03-15T08:02:42;101663.16;;;4.53;81.11
53647;BME280;39550;52.230;5.194;2023-03-15T08:05:08;101649.28;;;4.48;80.94
53647;BME280;39550;52.230;5.194;2023-03-15T08:07:34;101669.13;;;4.53;81.38
53647;BME280;39550;52.230;5.194;2023-03-15T08:10:01;101671.66;;;4.53;80.84
53647;BME280;39550;52.230;5.194;2023-03-15T08:12:27;101674.22;;;4.53;81.27
53647;BME280;39550;52.230;5.194;2023-03-15T08:14:52;101670.81;;;4.53;81.15
53647;BME280;39550;52.230;5.194;2023-03-15T08:17:18;101669.84;;;4.51;80.76
53647;BME280;39550;52.230;5.194;2023-03-15T08:19:43;101673.34;;;4.53;80.53
53647;BME280;39550;52.230;5.194;2023-03-15T08:22:09;101672.41;;;4.51;80.69
53647;BME280;39550;52.230;5.194;2023-03-15T08:24:35;101686.13;;;4.53;80.80
53647;BME280;39550;52.230;5.194;2023-03-15T08:27:00;101698.88;;;4.53;81.24
53647;BME280;39550;52.230;5.194;2023-03-15T08:29:26;101687.72;;;4.51;80.77
53647;BME280;39550;52.230;5.194;2023-03-15T08:31:52;101695.50;;;4.54;80.95
53647;BME280;39550;52.230;5.194;2023-03-15T08:34:17;101696.34;;;4.53;81.40
53647;BME280;39550;52.230;5.194;2023-03-15T08:36:45;101698.72;;;4.50;81.17
53647;BME280;39550;52.230;5.194;2023-03-15T08:39:11;101707.47;;;4.55;81.30
53647;BME280;39550;52.230;5.194;2023-03-15T08:41:37;101704.84;;;4.53;80.42
53647;BME280;39550;52.230;5.194;2023-03-15T08:44:02;101709.22;;;4.56;81.28
53647;BME280;39550;52.230;5.194;2023-03-15T08:46:27;101714.34;;;4.56;80.55
53647;BME280;39550;52.230;5.194;2023-03-15T08:48:53;101713.44;;;4.55;81.05
53647;BME280;39550;52.230;5.194;2023-03-15T08:51:18;101722.78;;;4.55;80.80
53647;BME280;39550;52.230;5.194;2023-03-15T08:53:45;101714.28;;;4.54;80.58
53647;BME280;39550;52.230;5.194;2023-03-15T08:56:11;101722.91;;;4.58;80.54
53647;BME280;39550;52.230;5.194;2023-03-15T08:58:37;101715.25;;;4.58;80.91
53647;BME280;39550;52.230;5.194;2023-03-15T09:01:02;101722.19;;;4.60;80.87
53647;BME280;39550;52.230;5.194;2023-03-15T09:03:29;101718.78;;;4.60;81.14
53647;BME280;39550;52.230;5.194;2023-03-15T09:05:57;101712.88;;;4.61;80.39
53647;BME280;39550;52.230;5.194;2023-03-15T09:08:23;101714.59;;;4.62;81.09
53647;BME280;39550;52.230;5.194;2023-03-15T09:10:55;101721.53;;;4.65;80.41
53647;BME280;39550;52.230;5.194;2023-03-15T09:13:21;101716.50;;;4.66;80.58
53647;BME280;39550;52.230;5.194;2023-03-15T09:15:54;101694.78;;;4.56;80.77
53647;BME280;39550;52.230;5.194;2023-03-15T09:18:20;101711.38;;;4.66;80.82
53647;BME280;39550;52.230;5.194;2023-03-15T09:20:46;101722.56;;;4.68;80.29
53647;BME280;39550;52.230;5.194;2023-03-15T09:23:11;101709.78;;;4.68;80.76
53647;BME280;39550;52.230;5.194;2023-03-15T09:25:37;101711.53;;;4.69;81.15
53647;BME280;39550;52.230;5.194;2023-03-15T09:28:06;101714.06;;;4.69;80.51
53647;BME280;39550;52.230;5.194;2023-03-15T09:30:33;101720.16;;;4.71;80.73
53647;BME280;39550;52.230;5.194;2023-03-15T09:32:59;101714.31;;;4.74;80.47
53647;BME280;39550;52.230;5.194;2023-03-15T09:35:24;101723.63;;;4.73;81.33
53647;BME280;39550;52.230;5.194;2023-03-15T09:37:50;101716.06;;;4.75;81.09
53647;BME280;39550;52.230;5.194;2023-03-15T09:40:20;101718.75;;;4.78;80.84
53647;BME280;39550;52.230;5.194;2023-03-15T09:42:58;101727.28;;;4.78;80.57
53647;BME280;39550;52.230;5.194;2023-03-15T09:51:15;101719.75;;;4.82;80.65
53647;BME280;39550;52.230;5.194;2023-03-15T09:53:58;101720.72;;;4.84;80.79
53647;BME280;39550;52.230;5.194;2023-03-15T09:56:28;101726.81;;;4.87;80.84
53647;BME280;39550;52.230;5.194;2023-03-15T09:58:58;101725.94;;;4.87;81.14
53647;BME280;39550;52.230;5.194;2023-03-15T10:01:34;101733.59;;;4.87;81.20
53647;BME280;39550;52.230;5.194;2023-03-15T10:04:23;101729.47;;;4.89;81.12
53647;BME280;39550;52.230;5.194;2023-03-15T10:06:54;101721.88;;;4.90;81.60
53647;BME280;39550;52.230;5.194;2023-03-15T10:09:22;101706.38;;;4.87;80.66
53647;BME280;39550;52.230;5.194;2023-03-15T10:12:02;101713.47;;;4.93;81.32
53647;BME280;39550;52.230;5.194;2023-03-15T10:20:24;101714.53;;;4.98;80.63
53647;BME280;39550;52.230;5.194;2023-03-15T10:25:38;101712.13;;;5.01;80.76
53647;BME280;39550;52.230;5.194;2023-03-15T10:30:37;101721.53;;;5.02;81.07
53647;BME280;39550;52.230;5.194;2023-03-15T10:33:25;101719.03;;;5.04;80.58
53647;BME280;39550;52.230;5.194;2023-03-15T10:35:52;101737.00;;;5.05;80.70
53647;BME280;39550;52.230;5.194;2023-03-15T10:38:20;101739.69;;;5.08;81.00
53647;BME280;39550;52.230;5.194;2023-03-15T10:40:56;101737.34;;;5.13;77.63
53647;BME280;39550;52.230;5.194;2023-03-15T10:43:33;101745.88;;;5.14;78.96
53647;BME280;39550;52.230;5.194;2023-03-15T10:46:12;101756.09;;;5.14;79.26
53647;BME280;39550;52.230;5.194;2023-03-15T10:48:55;101742.25;;;5.08;78.81
53647;BME280;39550;52.230;5.194;2023-03-15T10:51:28;101767.25;;;5.16;78.46
53647;BME280;39550;52.230;5.194;2023-03-15T10:54:19;101763.09;;;5.18;79.69
53647;BME280;39550;52.230;5.194;2023-03-15T10:56:48;101770.06;;;5.22;79.83
53647;BME280;39550;52.230;5.194;2023-03-15T10:59:23;101774.38;;;5.23;79.39
53647;BME280;39550;52.230;5.194;2023-03-15T11:01:51;101771.97;;;5.26;79.37
53647;BME280;39550;52.230;5.194;2023-03-15T11:06:48;101783.94;;;5.27;79.27
53647;BME280;39550;52.230;5.194;2023-03-15T11:09:21;101787.47;;;5.29;79.20
53647;BME280;39550;52.230;5.194;2023-03-15T11:14:22;101802.03;;;5.32;79.44
53647;BME280;39550;52.230;5.194;2023-03-15T11:16:51;101799.69;;;5.36;79.64
53647;BME280;39550;52.230;5.194;2023-03-15T11:19:21;101799.03;;;5.40;78.59
53647;BME280;39550;52.230;5.194;2023-03-15T11:21:47;101788.00;;;5.41;79.53
53647;BME280;39550;52.230;5.194;2023-03-15T11:24:29;101796.59;;;5.43;79.82
53647;BME280;39550;52.230;5.194;2023-03-15T11:27:00;101791.56;;;5.45;79.16
53647;BME280;39550;52.230;5.194;2023-03-15T11:29:27;101791.63;;;5.46;79.33
53647;BME280;39550;52.230;5.194;2023-03-15T11:31:54;101799.41;;;5.50;79.36
53647;BME280;39550;52.230;5.194;2023-03-15T11:34:30;101794.53;;;5.54;79.81
53647;BME280;39550;52.230;5.194;2023-03-15T11:37:04;101793.78;;;5.57;76.39
53647;BME280;39550;52.230;5.194;2023-03-15T11:39:51;101793.91;;;5.60;78.19
53647;BME280;39550;52.230;5.194;2023-03-15T11:42:31;101787.16;;;5.62;79.04
53647;BME280;39550;52.230;5.194;2023-03-15T11:45:03;101785.44;;;5.61;79.22
53647;BME280;39550;52.230;5.194;2023-03-15T11:47:50;101784.72;;;5.63;78.43
53647;BME280;39550;52.230;5.194;2023-03-15T11:50:17;101781.47;;;5.68;78.64
53647;BME280;39550;52.230;5.194;2023-03-15T11:52:47;101771.97;;;5.65;78.15
53647;BME280;39550;52.230;5.194;2023-03-15T11:55:26;101780.84;;;5.73;78.61
53647;BME280;39550;52.230;5.194;2023-03-15T11:57:53;101783.53;;;5.76;78.46
53647;BME280;39550;52.230;5.194;2023-03-15T12:03:29;101780.44;;;5.84;77.69
53647;BME280;39550;52.230;5.194;2023-03-15T12:05:59;101788.38;;;5.90;77.07
53647;BME280;39550;52.230;5.194;2023-03-15T12:10:59;101782.91;;;6.02;77.70
53647;BME280;39550;52.230;5.194;2023-03-15T12:13:29;101780.47;;;6.05;77.00
53647;BME280;39550;52.230;5.194;2023-03-15T12:15:56;101792.66;;;6.10;77.37
53647;BME280;39550;52.230;5.194;2023-03-15T12:18:29;101786.06;;;6.16;77.01
53647;BME280;39550;52.230;5.194;2023-03-15T12:21:08;101794.75;;;6.19;75.92
53647;BME280;39550;52.230;5.194;2023-03-15T12:23:41;101797.53;;;6.25;75.97
53647;BME280;39550;52.230;5.194;2023-03-15T12:26:11;101789.91;;;6.27;75.59
53647;BME280;39550;52.230;5.194;2023-03-15T12:28:41;101787.63;;;6.33;75.70
53647;BME280;39550;52.230;5.194;2023-03-15T12:31:14;101791.09;;;6.35;75.88
53647;BME280;39550;52.230;5.194;2023-03-15T12:33:51;101786.09;;;6.38;75.46
53647;BME280;39550;52.230;5.194;2023-03-15T12:36:39;101792.41;;;6.46;75.78
53647;BME280;39550;52.230;5.194;2023-03-15T12:41:41;101786.59;;;6.51;74.59
53647;BME280;39550;52.230;5.194;2023-03-15T12:46:53;101789.91;;;6.69;75.13
53647;BME280;39550;52.230;5.194;2023-03-15T12:57:03;101781.06;;;7.06;72.66
53647;BME280;39550;52.230;5.194;2023-03-15T12:59:34;101785.34;;;7.30;71.75
53647;BME280;39550;52.230;5.194;2023-03-15T13:02:18;101782.06;;;7.34;71.97
53647;BME280;39550;52.230;5.194;2023-03-15T13:04:47;101763.53;;;7.41;72.12
53647;BME280;39550;52.230;5.194;2023-03-15T13:07:23;101774.13;;;7.50;71.67
53647;BME280;39550;52.230;5.194;2023-03-15T13:12:47;101765.91;;;7.61;71.53
53647;BME280;39550;52.230;5.194;2023-03-15T13:15:21;101750.94;;;7.73;70.23
53647;BME280;39550;52.230;5.194;2023-03-15T13:17:50;101761.91;;;7.69;71.22
53647;BME280;39550;52.230;5.194;2023-03-15T13:25:59;101756.41;;;7.82;69.29
53647;BME280;39550;52.230;5.194;2023-03-15T13:28:32;101764.53;;;7.71;71.30
53647;BME280;39550;52.230;5.194;2023-03-15T13:31:09;101765.41;;;7.97;70.60
53647;BME280;39550;52.230;5.194;2023-03-15T13:33:35;101767.75;;;7.65;70.96
53647;BME280;39550;52.230;5.194;2023-03-15T13:36:13;101768.53;;;8.14;66.27
53647;BME280;39550;52.230;5.194;2023-03-15T13:41:20;101773.56;;;8.37;64.22
53647;BME280;39550;52.230;5.194;2023-03-15T13:43:47;101773.47;;;8.61;60.59
53647;BME280;39550;52.230;5.194;2023-03-15T13:46:13;101780.59;;;8.42;59.09
53647;BME280;39550;52.230;5.194;2023-03-15T13:48:41;101765.66;;;8.30;58.64
53647;BME280;39550;52.230;5.194;2023-03-15T13:51:15;101761.59;;;8.37;61.18
53647;BME280;39550;52.230;5.194;2023-03-15T13:53:42;101777.16;;;8.69;60.09
53647;BME280;39550;52.230;5.194;2023-03-15T13:56:08;101780.03;;;8.78;59.92
53647;BME280;39550;52.230;5.194;2023-03-15T13:58:36;101769.44;;;8.69;58.72
53647;BME280;39550;52.230;5.194;2023-03-15T14:01:05;101757.78;;;8.80;59.58
53647;BME280;39550;52.230;5.194;2023-03-15T14:03:33;101778.19;;;8.74;58.32
53647;BME280;39550;52.230;5.194;2023-03-15T14:05:59;101772.28;;;8.49;59.09